Terminal Aerodrome Forecast
Issued by NWS

Home | Current Version | Previous Version | Text Only | Print | Product List | Glossary On
Versions: 1 2 3 4 5 6 7 8 9 10 11 12 13 14 15 16 17 18 19 20 21 22
000
FTUS43 KPAH 220500
TAFCGI
TAF
KCGI 220540Z 2206/2306 13004KT P6SM OVC080
     FM220930 15008KT P6SM -RA BKN013 OVC090
     FM221330 16012KT 2SM -RA BR BKN006 OVC025
     FM222100 15010KT 4SM -RA BR BKN011 OVC030=

USA.gov is the U.S. government's official web portal to all federal, state and local government web resources and services.